^^
Meteo Knjazevac Station Historical Data
Daily Summary for June 2, 2021 Units:  Metric    English   Both
Daily Weekly Monthly Yearly Custom
  High: Low: Average:
Temperature: 13.3 °C 4.4 °C 9.2 °C
Dew Point: 5.3 °C 0.7 °C 3.5 °C
Humidity: 79% 57% 68%
Wind Speed: 16.1km/h 0km/h 7.7km/h
Wind Gust: 32.2km/h - -
Wind- - SSE
Pressure: 1013.1 hPa 1006 hPa -
Precipitation: 0 mm    
Historical Graphs
 
 
Tabular Data for June 2, 2021
Time Temperature Dew Point Pressure Wind Wind Speed Wind Gust Humidity Rainfall Rate (Hourly) solar Conditions
00:00 4.8 °C 0.7 °C 1013.1 hPa SE 8 km/h 11.3 km/h 75% 0 mm 0 W/m2
00:10 4.5 °C 0.8 °C 1013.1 hPa ENE 3.2 km/h 11.3 km/h 77% 0 mm 0 W/m2
00:20 4.7 °C 1 °C 1013.1 hPa SSE 1.6 km/h 12.9 km/h 77% 0 mm 0 W/m2
00:30 4.6 °C 0.9 °C 1013.1 hPa SSE 1.6 km/h 12.9 km/h 77% 0 mm 0 W/m2
00:40 4.7 °C 1.2 °C 1013.1 hPa SE 4.8 km/h 14.5 km/h 78% 0 mm 0 W/m2
00:50 4.7 °C 1 °C 1013.1 hPa South 4.8 km/h 12.9 km/h 77% 0 mm 0 W/m2
01:00 4.6 °C 1.1 °C 1013.1 hPa NNW 3.2 km/h 8 km/h 78% 0 mm 0 W/m2
01:10 4.4 °C 1.1 °C 1013.1 hPa NNE 4.8 km/h 19.3 km/h 79% 0 mm 0 W/m2
01:20 4.8 °C 1.4 °C 1012.8 hPa ESE 11.3 km/h 20.9 km/h 79% 0 mm 0 W/m2
01:30 5 °C 1.5 °C 1012.8 hPa ESE 9.7 km/h 20.9 km/h 78% 0 mm 0 W/m2
01:40 5 °C 1.5 °C 1012.8 hPa SE 1.6 km/h 16.1 km/h 78% 0 mm 0 W/m2
01:50 4.9 °C 1.4 °C 1012.8 hPa SSE 1.6 km/h 11.3 km/h 78% 0 mm 0 W/m2
02:00 4.8 °C 1.3 °C 1012.8 hPa Calm   11.3 km/h 78% 0 mm 0 W/m2
02:10 4.9 °C 1.4 °C 1012.8 hPa SE 4.8 km/h 16.1 km/h 78% 0 mm 0 W/m2
02:20 5.1 °C 1.4 °C 1012.8 hPa SE 8 km/h 14.5 km/h 77% 0 mm 0 W/m2
02:30 5.1 °C 1.4 °C 1012.4 hPa SE 4.8 km/h 16.1 km/h 77% 0 mm 0 W/m2
02:40 5.1 °C 1.4 °C 1012.4 hPa SE 9.7 km/h 14.5 km/h 77% 0 mm 0 W/m2
02:50 5.2 °C 1.5 °C 1012.4 hPa SE 4.8 km/h 16.1 km/h 77% 0 mm 0 W/m2
03:00 5.1 °C 1.4 °C 1012.4 hPa SE 3.2 km/h 9.7 km/h 77% 0 mm 0 W/m2
03:10 5 °C 1.5 °C 1012.1 hPa SSW 4.8 km/h 11.3 km/h 78% 0 mm 0 W/m2
03:20 5 °C 1.5 °C 1012.1 hPa South 3.2 km/h 11.3 km/h 78% 0 mm 0 W/m2
03:30 5.3 °C 1.6 °C 1012.1 hPa South 4.8 km/h 11.3 km/h 77% 0 mm 0 W/m2
03:40 5.5 °C 1.8 °C 1011.7 hPa South 4.8 km/h 12.9 km/h 77% 0 mm 0 W/m2
03:50 5.8 °C 1.7 °C 1011.7 hPa South 11.3 km/h 16.1 km/h 75% 0 mm 0 W/m2
04:00 5.9 °C 1.8 °C 1011.7 hPa South 9.7 km/h 16.1 km/h 75% 0 mm 0 W/m2
04:10 6 °C 1.9 °C 1011.7 hPa SSW 9.7 km/h 16.1 km/h 75% 0 mm 0 W/m2
04:20 6 °C 1.7 °C 1011.7 hPa SSW 8 km/h 14.5 km/h 74% 0 mm 0 W/m2
04:30 6.1 °C 1.8 °C 1011.7 hPa SW 3.2 km/h 11.3 km/h 74% 0 mm 0 W/m2
04:40 6 °C 1.7 °C 1011.7 hPa SSW 3.2 km/h 9.7 km/h 74% 0 mm 0 W/m2
04:50 6 °C 1.9 °C 1011.7 hPa SSW 4.8 km/h 9.7 km/h 75% 0 mm 0 W/m2
05:00 6 °C 1.9 °C 1011.4 hPa SW 4.8 km/h 11.3 km/h 75% 0 mm 0 W/m2
05:10 6 °C 1.9 °C 1011.4 hPa SW 8 km/h 11.3 km/h 75% 0 mm 0 W/m2
05:20 5.9 °C 1.8 °C 1011.4 hPa WSW 4.8 km/h 12.9 km/h 75% 0 mm 0 W/m2
05:30 5.9 °C 1.8 °C 1011.1 hPa SW 4.8 km/h 11.3 km/h 75% 0 mm 0 W/m2
05:40 6 °C 1.9 °C 1011.1 hPa Calm   11.3 km/h 75% 0 mm 0 W/m2
05:50 5.8 °C 1.7 °C 1011.1 hPa Calm   8 km/h 75% 0 mm 0 W/m2
06:00 5.8 °C 1.7 °C 1011.1 hPa SSW 3.2 km/h 9.7 km/h 75% 0 mm 0 W/m2
06:10 6 °C 1.9 °C 1011.1 hPa SW 4.8 km/h 11.3 km/h 75% 0 mm 0 W/m2
06:20 6.1 °C 2 °C 1011.1 hPa SW 3.2 km/h 9.7 km/h 75% 0 mm 0 W/m2
06:30 6.1 °C 2 °C 1011.1 hPa Calm   8 km/h 75% 0 mm 0 W/m2
06:40 6.2 °C 1.9 °C 1011.1 hPa East 1.6 km/h 4.8 km/h 74% 0 mm 0 W/m2
06:50 6.1 °C 2 °C 1011.1 hPa Calm   6.4 km/h 75% 0 mm 5 W/m2
07:10 6.6 °C 2.1 °C 1011.1 hPa SW 4.8 km/h 16.1 km/h 73% 0 mm 18 W/m2
07:30 6.8 °C 2.3 °C 1011.1 hPa SSW 4.8 km/h 14.5 km/h 73% 0 mm 27 W/m2
07:40 7 °C 2.5 °C 1011.1 hPa South 8 km/h 16.1 km/h 73% 0 mm 33 W/m2
07:50 7.1 °C 2.4 °C 1011.1 hPa SSW 4.8 km/h 12.9 km/h 72% 0 mm 51 W/m2
08:00 7.2 °C 2.5 °C 1011.1 hPa South 4.8 km/h 12.9 km/h 72% 0 mm 71 W/m2
08:10 7.3 °C 2.6 °C 1011.1 hPa South 8 km/h 12.9 km/h 72% 0 mm 82 W/m2
08:20 7.5 °C 2.8 °C 1011.1 hPa South 8 km/h 12.9 km/h 72% 0 mm 79 W/m2
08:30 7.7 °C 2.6 °C 1011.1 hPa South 8 km/h 16.1 km/h 70% 0 mm 98 W/m2
08:40 7.9 °C 2.8 °C 1011.1 hPa South 8 km/h 19.3 km/h 70% 0 mm 98 W/m2
08:50 8.2 °C 2.8 °C 1011.1 hPa SSE 8 km/h 19.3 km/h 69% 0 mm 94 W/m2
09:00 8.3 °C 2.9 °C 1011.1 hPa SSE 3.2 km/h 14.5 km/h 69% 0 mm 109 W/m2
09:10 8.4 °C 3.1 °C 1011.1 hPa South 3.2 km/h 11.3 km/h 69% 0 mm 131 W/m2
09:20 8.7 °C 3.3 °C 1011.1 hPa SSE 9.7 km/h 14.5 km/h 69% 0 mm 162 W/m2
09:30 9 °C 3.4 °C 1010.7 hPa SE 11.3 km/h 20.9 km/h 68% 0 mm 177 W/m2
09:40 9.4 °C 3.2 °C 1011.1 hPa SE 9.7 km/h 25.7 km/h 65% 0 mm 241 W/m2
09:50 9.6 °C 3.3 °C 1010.7 hPa SSE 8 km/h 22.5 km/h 65% 0 mm 202 W/m2
10:00 9.8 °C 3.3 °C 1010.7 hPa SSE 9.7 km/h 27.4 km/h 64% 0 mm 175 W/m2
10:10 10 °C 3.5 °C 1010.4 hPa SE 9.7 km/h 24.1 km/h 64% 0 mm 181 W/m2
10:20 10.1 °C 3.4 °C 1010.4 hPa SE 12.9 km/h 29 km/h 63% 0 mm 177 W/m2
10:30 10.3 °C 3.3 °C 1010.4 hPa SE 12.9 km/h 32.2 km/h 62% 0 mm 179 W/m2
10:40 10.6 °C 3.6 °C 1010.4 hPa SE 14.5 km/h 27.4 km/h 62% 0 mm 306 W/m2
10:50 10.9 °C 3.4 °C 1010 hPa SE 14.5 km/h 27.4 km/h 60% 0 mm 227 W/m2
11:00 11.3 °C 3.8 °C 1010 hPa SE 16.1 km/h 27.4 km/h 60% 0 mm 225 W/m2
11:10 11.5 °C 4 °C 1010 hPa SE 8 km/h 25.7 km/h 60% 0 mm 349 W/m2
11:20 12.1 °C 4.3 °C 1010 hPa SE 14.5 km/h 29 km/h 59% 0 mm 353 W/m2
11:30 12.6 °C 4.6 °C 1010 hPa SE 14.5 km/h 27.4 km/h 58% 0 mm 352 W/m2
11:40 12.8 °C 4.7 °C 1009.7 hPa ESE 12.9 km/h 29 km/h 58% 0 mm 349 W/m2
11:50 13.2 °C 4.8 °C 1009.7 hPa SE 14.5 km/h 25.7 km/h 57% 0 mm 281 W/m2
12:00 13 °C 4.7 °C 1009.4 hPa SE 12.9 km/h 25.7 km/h 57% 0 mm 141 W/m2
12:10 12.8 °C 4.7 °C 1009.4 hPa SE 14.5 km/h 25.7 km/h 58% 0 mm 149 W/m2
12:20 12.7 °C 4.7 °C 1009.4 hPa SE 11.3 km/h 24.1 km/h 58% 0 mm 169 W/m2
12:30 12.7 °C 4.7 °C 1009 hPa SE 12.9 km/h 24.1 km/h 58% 0 mm 179 W/m2
12:40 12.8 °C 4.7 °C 1008.7 hPa SE 16.1 km/h 25.7 km/h 58% 0 mm 166 W/m2
12:50 12.8 °C 5 °C 1008.7 hPa SE 9.7 km/h 24.1 km/h 59% 0 mm 255 W/m2
13:00 13 °C 4.9 °C 1008.4 hPa SE 12.9 km/h 22.5 km/h 58% 0 mm 204 W/m2
13:10 13.3 °C 5.2 °C 1008.4 hPa SSE 12.9 km/h 27.4 km/h 58% 0 mm 232 W/m2
13:20 13.2 °C 5.1 °C 1008.4 hPa SSE 12.9 km/h 20.9 km/h 58% 0 mm 130 W/m2
13:30 13.2 °C 5.1 °C 1008.4 hPa SE 11.3 km/h 22.5 km/h 58% 0 mm 177 W/m2
13:40 13.2 °C 5.1 °C 1008.4 hPa SE 9.7 km/h 19.3 km/h 58% 0 mm 151 W/m2
13:50 13.2 °C 5.1 °C 1008 hPa SSE 11.3 km/h 24.1 km/h 58% 0 mm 117 W/m2
14:00 13.1 °C 5 °C 1008 hPa SE 11.3 km/h 27.4 km/h 58% 0 mm 83 W/m2
14:10 12.9 °C 5.1 °C 1008 hPa SE 8 km/h 20.9 km/h 59% 0 mm 48 W/m2
14:20 12.9 °C 5.1 °C 1007.7 hPa SE 3.2 km/h 14.5 km/h 59% 0 mm 55 W/m2
14:30 12.8 °C 5.2 °C 1008 hPa ESE 3.2 km/h 11.3 km/h 60% 0 mm 65 W/m2
14:40 12.8 °C 5 °C 1008 hPa ESE 9.7 km/h 12.9 km/h 59% 0 mm 54 W/m2
14:50 12.7 °C 5.1 °C 1008 hPa ESE 4.8 km/h 12.9 km/h 60% 0 mm 49 W/m2
15:00 12.7 °C 5.1 °C 1007.7 hPa SE 8 km/h 17.7 km/h 60% 0 mm 64 W/m2
15:10 12.9 °C 5.3 °C 1007.7 hPa SE 8 km/h 19.3 km/h 60% 0 mm 46 W/m2
15:20 12.9 °C 5.1 °C 1007.7 hPa SE 11.3 km/h 22.5 km/h 59% 0 mm 29 W/m2
15:30 12.7 °C 4.9 °C 1007.3 hPa SE 11.3 km/h 25.7 km/h 59% 0 mm 13 W/m2
15:40 12.4 °C 4.8 °C 1007.3 hPa ESE 11.3 km/h 22.5 km/h 60% 0 mm 12 W/m2
15:50 12.3 °C 4.7 °C 1007.3 hPa SE 11.3 km/h 19.3 km/h 60% 0 mm 7 W/m2
16:00 12.1 °C 5 °C 1007.3 hPa SE 8 km/h 16.1 km/h 62% 0 mm 0 W/m2
16:10 11.8 °C 4.7 °C 1007.3 hPa SSE 8 km/h 12.9 km/h 62% 0 mm 0 W/m2
16:20 11.6 °C 4.8 °C 1007.3 hPa SSE 8 km/h 16.1 km/h 63% 0 mm 0 W/m2
16:30 11.4 °C 4.6 °C 1007.7 hPa SSE 9.7 km/h 16.1 km/h 63% 0 mm 0 W/m2
16:40 11.3 °C 4.5 °C 1007.7 hPa SSE 8 km/h 22.5 km/h 63% 0 mm 0 W/m2
16:50 11.1 °C 4.6 °C 1007.7 hPa South 8 km/h 11.3 km/h 64% 0 mm 0 W/m2
17:00 10.9 °C 4.4 °C 1007.7 hPa South 4.8 km/h 14.5 km/h 64% 0 mm 0 W/m2
17:10 10.8 °C 4.5 °C 1007.7 hPa South 8 km/h 14.5 km/h 65% 0 mm 0 W/m2
17:20 10.7 °C 4.3 °C 1007.7 hPa South 3.2 km/h 12.9 km/h 65% 0 mm 0 W/m2
17:30 10.4 °C 4.6 °C 1007.7 hPa SSE 4.8 km/h 9.7 km/h 67% 0 mm 0 W/m2
17:40 10.3 °C 4.4 °C 1008 hPa SSE 3.2 km/h 12.9 km/h 67% 0 mm 0 W/m2
17:50 10.2 °C 4.6 °C 1008 hPa SSW 3.2 km/h 9.7 km/h 68% 0 mm 0 W/m2
18:00 10.1 °C 4.4 °C 1007.7 hPa SSW 1.6 km/h 8 km/h 68% 0 mm 0 W/m2
18:10 10 °C 4.3 °C 1007.7 hPa South 3.2 km/h 8 km/h 68% 0 mm 0 W/m2
18:20 10 °C 4.6 °C 1007.3 hPa SSE 8 km/h 12.9 km/h 69% 0 mm 0 W/m2
18:30 10.4 °C 4.7 °C 1007.3 hPa SSE 8 km/h 16.1 km/h 68% 0 mm 0 W/m2
18:40 10.6 °C 4.7 °C 1007.7 hPa SE 4.8 km/h 14.5 km/h 67% 0 mm 0 W/m2
18:50 10.6 °C 4.7 °C 1007.3 hPa SE 8 km/h 19.3 km/h 67% 0 mm 0 W/m2
19:00 10.8 °C 4.5 °C 1007.3 hPa SE 11.3 km/h 24.1 km/h 65% 0 mm 0 W/m2
19:10 10.8 °C 4.5 °C 1007.3 hPa SE 8 km/h 20.9 km/h 65% 0 mm 0 W/m2
19:20 10.8 °C 4.5 °C 1007.3 hPa SE 9.7 km/h 30.6 km/h 65% 0 mm 0 W/m2
19:30 10.7 °C 4.4 °C 1007.3 hPa SSE 8 km/h 17.7 km/h 65% 0 mm 0 W/m2
19:40 10.7 °C 4.4 °C 1007.3 hPa SE 11.3 km/h 19.3 km/h 65% 0 mm 0 W/m2
19:50 10.7 °C 4.4 °C 1007.3 hPa SE 9.7 km/h 19.3 km/h 65% 0 mm 0 W/m2
20:00 10.7 °C 4.4 °C 1007.3 hPa SE 9.7 km/h 16.1 km/h 65% 0 mm 0 W/m2
20:10 10.7 °C 4.4 °C 1007.3 hPa SE 8 km/h 22.5 km/h 65% 0 mm 0 W/m2
20:20 10.7 °C 4.8 °C 1007 hPa SSE 9.7 km/h 20.9 km/h 67% 0 mm 0 W/m2
20:30 10.6 °C 4.5 °C 1006.7 hPa SSE 11.3 km/h 25.7 km/h 66% 0 mm 0 W/m2
20:40 10.6 °C 4.7 °C 1006.7 hPa SSE 9.7 km/h 20.9 km/h 67% 0 mm 0 W/m2
20:50 10.7 °C 4.6 °C 1006.7 hPa SSE 9.7 km/h 24.1 km/h 66% 0 mm 0 W/m2
21:00 10.8 °C 4.5 °C 1006.3 hPa SE 14.5 km/h 32.2 km/h 65% 0 mm 0 W/m2
21:10 10.8 °C 4.5 °C 1006 hPa SE 4.8 km/h 19.3 km/h 65% 0 mm 0 W/m2
21:20 10.8 °C 4.5 °C 1006.3 hPa ESE 4.8 km/h 16.1 km/h 65% 0 mm 0 W/m2
21:30 10.8 °C 4.5 °C 1006.3 hPa ESE 4.8 km/h 11.3 km/h 65% 0 mm 0 W/m2
21:40 10.7 °C 4.8 °C 1006 hPa East 4.8 km/h 19.3 km/h 67% 0 mm 0 W/m2
21:50 10.6 °C 4.7 °C 1006 hPa ESE 4.8 km/h 11.3 km/h 67% 0 mm 0 W/m2
22:00 10.4 °C 4.6 °C 1006 hPa SSE 11.3 km/h 19.3 km/h 67% 0 mm 0 W/m2
22:10 10.7 °C 4.4 °C 1006 hPa SSE 14.5 km/h 24.1 km/h 65% 0 mm 0 W/m2
22:20 10.8 °C 4.5 °C 1006 hPa SSE 12.9 km/h 25.7 km/h 65% 0 mm 0 W/m2
22:30 10.7 °C 4.4 °C 1006 hPa South 9.7 km/h 22.5 km/h 65% 0 mm 0 W/m2
22:40 10.7 °C 4.4 °C 1006 hPa SSW 8 km/h 19.3 km/h 65% 0 mm 0 W/m2
22:50 10.6 °C 4.3 °C 1006 hPa South 4.8 km/h 12.9 km/h 65% 0 mm 0 W/m2
23:00 10.7 °C 4.4 °C 1006 hPa South 9.7 km/h 19.3 km/h 65% 0 mm 0 W/m2
23:10 10.8 °C 4.5 °C 1006 hPa SSE 14.5 km/h 25.7 km/h 65% 0 mm 0 W/m2
23:20 10.9 °C 4.6 °C 1006 hPa SSE 11.3 km/h 22.5 km/h 65% 0 mm 0 W/m2
23:30 10.8 °C 4.5 °C 1006 hPa SSE 4.8 km/h 14.5 km/h 65% 0 mm 0 W/m2
23:40 10.8 °C 4.5 °C 1006 hPa SE 9.7 km/h 16.1 km/h 65% 0 mm 0 W/m2
23:50 10.8 °C 4.9 °C 1006 hPa SSE 3.2 km/h 16.1 km/h 67% 0 mm 0 W/m2
Knjazevac, Serbia
Compliments of Weather Underground - 2 mb